sensor_id;sensor_type;location;lat;lon;timestamp;P1;durP1;ratioP1;P2;durP2;ratioP2
77524;SDS011;66638;50.050;21.124;2023-03-20T00:00:35;31.00;;;15.60;;
77524;SDS011;66638;50.050;21.124;2023-03-20T00:03:23;25.30;;;15.00;;
77524;SDS011;66638;50.050;21.124;2023-03-20T00:06:12;25.50;;;14.40;;
77524;SDS011;66638;50.050;21.124;2023-03-20T00:09:00;20.50;;;13.00;;
77524;SDS011;66638;50.050;21.124;2023-03-20T00:11:47;24.00;;;13.00;;
77524;SDS011;66638;50.050;21.124;2023-03-20T00:14:35;26.50;;;13.60;;
77524;SDS011;66638;50.050;21.124;2023-03-20T00:17:21;26.20;;;13.90;;
77524;SDS011;66638;50.050;21.124;2023-03-20T00:20:12;25.50;;;14.50;;
77524;SDS011;66638;50.050;21.124;2023-03-20T00:23:00;25.70;;;14.50;;
77524;SDS011;66638;50.050;21.124;2023-03-20T00:25:45;25.00;;;13.90;;
77524;SDS011;66638;50.050;21.124;2023-03-20T00:28:39;22.80;;;12.90;;
77524;SDS011;66638;50.050;21.124;2023-03-20T00:31:32;26.40;;;14.90;;
77524;SDS011;66638;50.050;21.124;2023-03-20T00:34:20;22.40;;;13.00;;
77524;SDS011;66638;50.050;21.124;2023-03-20T00:37:08;22.70;;;13.60;;
77524;SDS011;66638;50.050;21.124;2023-03-20T00:39:55;22.40;;;13.30;;
77524;SDS011;66638;50.050;21.124;2023-03-20T00:42:42;27.60;;;14.10;;
77524;SDS011;66638;50.050;21.124;2023-03-20T00:45:30;21.20;;;12.50;;
77524;SDS011;66638;50.050;21.124;2023-03-20T00:51:02;25.70;;;13.50;;
77524;SDS011;66638;50.050;21.124;2023-03-20T00:53:50;24.30;;;13.90;;
77524;SDS011;66638;50.050;21.124;2023-03-20T00:56:41;26.90;;;13.70;;
77524;SDS011;66638;50.050;21.124;2023-03-20T00:59:30;22.00;;;13.90;;
77524;SDS011;66638;50.050;21.124;2023-03-20T01:02:19;25.20;;;13.50;;
77524;SDS011;66638;50.050;21.124;2023-03-20T01:05:06;26.10;;;14.00;;
77524;SDS011;66638;50.050;21.124;2023-03-20T01:07:52;21.10;;;13.60;;
77524;SDS011;66638;50.050;21.124;2023-03-20T01:10:38;23.30;;;13.20;;
77524;SDS011;66638;50.050;21.124;2023-03-20T01:13:29;25.70;;;13.30;;
77524;SDS011;66638;50.050;21.124;2023-03-20T01:16:16;22.50;;;13.40;;
77524;SDS011;66638;50.050;21.124;2023-03-20T01:19:09;20.70;;;12.00;;
77524;SDS011;66638;50.050;21.124;2023-03-20T01:21:57;23.40;;;13.30;;
77524;SDS011;66638;50.050;21.124;2023-03-20T01:24:43;25.90;;;13.30;;
77524;SDS011;66638;50.050;21.124;2023-03-20T01:27:30;20.30;;;11.20;;
77524;SDS011;66638;50.050;21.124;2023-03-20T01:30:18;24.50;;;11.80;;
77524;SDS011;66638;50.050;21.124;2023-03-20T01:33:15;24.70;;;12.30;;
77524;SDS011;66638;50.050;21.124;2023-03-20T01:36:03;24.70;;;12.70;;
77524;SDS011;66638;50.050;21.124;2023-03-20T01:38:53;20.40;;;12.00;;
77524;SDS011;66638;50.050;21.124;2023-03-20T01:41:40;23.00;;;12.00;;
77524;SDS011;66638;50.050;21.124;2023-03-20T01:44:30;22.90;;;12.50;;
77524;SDS011;66638;50.050;21.124;2023-03-20T01:47:19;23.40;;;12.90;;
77524;SDS011;66638;50.050;21.124;2023-03-20T01:53:20;21.30;;;11.70;;
77524;SDS011;66638;50.050;21.124;2023-03-20T01:56:13;22.00;;;12.60;;
77524;SDS011;66638;50.050;21.124;2023-03-20T01:59:05;23.80;;;12.50;;
77524;SDS011;66638;50.050;21.124;2023-03-20T02:01:56;22.90;;;12.80;;
77524;SDS011;66638;50.050;21.124;2023-03-20T02:04:44;23.60;;;13.40;;
77524;SDS011;66638;50.050;21.124;2023-03-20T02:07:34;26.50;;;13.50;;
77524;SDS011;66638;50.050;21.124;2023-03-20T02:10:25;23.90;;;13.50;;
77524;SDS011;66638;50.050;21.124;2023-03-20T02:13:16;24.70;;;12.40;;
77524;SDS011;66638;50.050;21.124;2023-03-20T02:16:06;25.10;;;13.00;;
77524;SDS011;66638;50.050;21.124;2023-03-20T02:19:16;21.90;;;13.80;;
77524;SDS011;66638;50.050;21.124;2023-03-20T02:22:32;23.40;;;13.20;;
77524;SDS011;66638;50.050;21.124;2023-03-20T02:29:14;19.30;;;12.10;;
77524;SDS011;66638;50.050;21.124;2023-03-20T02:32:38;21.10;;;11.80;;
77524;SDS011;66638;50.050;21.124;2023-03-20T02:36:06;18.00;;;11.00;;
77524;SDS011;66638;50.050;21.124;2023-03-20T02:39:22;24.10;;;12.50;;
77524;SDS011;66638;50.050;21.124;2023-03-20T02:42:39;22.30;;;12.30;;
77524;SDS011;66638;50.050;21.124;2023-03-20T02:45:48;26.10;;;12.70;;
77524;SDS011;66638;50.050;21.124;2023-03-20T02:48:43;22.50;;;13.10;;
77524;SDS011;66638;50.050;21.124;2023-03-20T02:51:34;25.80;;;13.20;;
77524;SDS011;66638;50.050;21.124;2023-03-20T02:57:56;26.40;;;14.80;;
77524;SDS011;66638;50.050;21.124;2023-03-20T03:01:01;27.70;;;14.20;;
77524;SDS011;66638;50.050;21.124;2023-03-20T03:03:59;23.90;;;12.50;;
77524;SDS011;66638;50.050;21.124;2023-03-20T03:06:49;20.60;;;12.00;;
77524;SDS011;66638;50.050;21.124;2023-03-20T03:09:47;23.80;;;12.70;;
77524;SDS011;66638;50.050;21.124;2023-03-20T03:12:39;22.10;;;12.40;;
77524;SDS011;66638;50.050;21.124;2023-03-20T03:15:35;19.10;;;12.00;;
77524;SDS011;66638;50.050;21.124;2023-03-20T03:18:23;21.00;;;11.50;;
77524;SDS011;66638;50.050;21.124;2023-03-20T03:21:10;18.70;;;11.90;;
77524;SDS011;66638;50.050;21.124;2023-03-20T03:23:58;23.70;;;12.90;;
77524;SDS011;66638;50.050;21.124;2023-03-20T03:26:44;24.20;;;13.00;;
77524;SDS011;66638;50.050;21.124;2023-03-20T03:29:32;21.30;;;12.20;;
77524;SDS011;66638;50.050;21.124;2023-03-20T03:32:22;20.80;;;12.30;;
77524;SDS011;66638;50.050;21.124;2023-03-20T03:35:17;23.80;;;11.40;;
77524;SDS011;66638;50.050;21.124;2023-03-20T03:38:17;20.10;;;11.40;;
77524;SDS011;66638;50.050;21.124;2023-03-20T03:41:33;19.40;;;11.60;;
77524;SDS011;66638;50.050;21.124;2023-03-20T03:44:22;21.10;;;11.60;;
77524;SDS011;66638;50.050;21.124;2023-03-20T03:47:18;22.10;;;12.10;;
77524;SDS011;66638;50.050;21.124;2023-03-20T03:50:09;21.40;;;12.70;;
77524;SDS011;66638;50.050;21.124;2023-03-20T03:53:02;25.20;;;14.70;;
77524;SDS011;66638;50.050;21.124;2023-03-20T03:55:53;25.20;;;14.50;;
77524;SDS011;66638;50.050;21.124;2023-03-20T03:58:42;23.30;;;13.90;;
77524;SDS011;66638;50.050;21.124;2023-03-20T04:01:30;23.50;;;13.50;;
77524;SDS011;66638;50.050;21.124;2023-03-20T04:04:19;28.30;;;13.00;;
77524;SDS011;66638;50.050;21.124;2023-03-20T04:07:06;22.80;;;13.70;;
77524;SDS011;66638;50.050;21.124;2023-03-20T04:09:52;25.30;;;14.00;;
77524;SDS011;66638;50.050;21.124;2023-03-20T04:12:39;26.40;;;13.40;;
77524;SDS011;66638;50.050;21.124;2023-03-20T04:15:29;27.20;;;14.10;;
77524;SDS011;66638;50.050;21.124;2023-03-20T04:18:16;26.30;;;13.80;;
77524;SDS011;66638;50.050;21.124;2023-03-20T04:21:05;21.50;;;13.10;;
77524;SDS011;66638;50.050;21.124;2023-03-20T04:23:52;26.70;;;15.60;;
77524;SDS011;66638;50.050;21.124;2023-03-20T04:26:40;27.80;;;14.20;;
77524;SDS011;66638;50.050;21.124;2023-03-20T04:29:26;27.70;;;14.80;;
77524;SDS011;66638;50.050;21.124;2023-03-20T04:32:32;25.60;;;13.30;;
77524;SDS011;66638;50.050;21.124;2023-03-20T04:35:28;23.90;;;13.00;;
77524;SDS011;66638;50.050;21.124;2023-03-20T04:38:22;25.90;;;13.00;;
77524;SDS011;66638;50.050;21.124;2023-03-20T04:41:10;27.70;;;14.30;;
77524;SDS011;66638;50.050;21.124;2023-03-20T04:43:57;23.60;;;13.10;;
77524;SDS011;66638;50.050;21.124;2023-03-20T04:46:43;26.80;;;13.70;;
77524;SDS011;66638;50.050;21.124;2023-03-20T04:49:34;24.60;;;13.80;;
77524;SDS011;66638;50.050;21.124;2023-03-20T04:52:21;24.60;;;13.20;;
77524;SDS011;66638;50.050;21.124;2023-03-20T04:55:07;22.10;;;12.40;;
77524;SDS011;66638;50.050;21.124;2023-03-20T04:57:53;25.00;;;14.00;;
77524;SDS011;66638;50.050;21.124;2023-03-20T05:00:39;19.40;;;12.10;;
77524;SDS011;66638;50.050;21.124;2023-03-20T05:03:25;19.90;;;13.20;;
77524;SDS011;66638;50.050;21.124;2023-03-20T05:06:12;21.60;;;12.10;;
77524;SDS011;66638;50.050;21.124;2023-03-20T05:09:01;23.20;;;13.10;;
77524;SDS011;66638;50.050;21.124;2023-03-20T05:11:49;29.00;;;13.70;;
77524;SDS011;66638;50.050;21.124;2023-03-20T05:14:55;22.50;;;12.80;;
77524;SDS011;66638;50.050;21.124;2023-03-20T05:18:00;27.50;;;14.60;;
77524;SDS011;66638;50.050;21.124;2023-03-20T05:21:06;26.90;;;12.60;;
77524;SDS011;66638;50.050;21.124;2023-03-20T05:24:13;22.00;;;12.80;;
77524;SDS011;66638;50.050;21.124;2023-03-20T05:27:09;18.60;;;10.60;;
77524;SDS011;66638;50.050;21.124;2023-03-20T05:30:04;20.50;;;11.70;;
77524;SDS011;66638;50.050;21.124;2023-03-20T05:33:06;23.10;;;12.40;;
77524;SDS011;66638;50.050;21.124;2023-03-20T05:36:09;24.30;;;13.40;;
77524;SDS011;66638;50.050;21.124;2023-03-20T05:39:14;26.10;;;13.60;;
77524;SDS011;66638;50.050;21.124;2023-03-20T05:42:20;20.90;;;12.00;;
77524;SDS011;66638;50.050;21.124;2023-03-20T05:45:26;21.70;;;12.80;;
77524;SDS011;66638;50.050;21.124;2023-03-20T05:48:18;28.00;;;14.90;;
77524;SDS011;66638;50.050;21.124;2023-03-20T05:51:24;21.90;;;13.10;;
77524;SDS011;66638;50.050;21.124;2023-03-20T05:54:25;21.40;;;12.60;;
77524;SDS011;66638;50.050;21.124;2023-03-20T05:57:25;22.60;;;12.80;;
77524;SDS011;66638;50.050;21.124;2023-03-20T06:00:19;24.20;;;12.60;;
77524;SDS011;66638;50.050;21.124;2023-03-20T06:03:05;21.70;;;13.10;;
77524;SDS011;66638;50.050;21.124;2023-03-20T06:06:01;25.00;;;12.80;;
77524;SDS011;66638;50.050;21.124;2023-03-20T06:08:48;22.90;;;14.70;;
77524;SDS011;66638;50.050;21.124;2023-03-20T06:11:35;22.10;;;12.70;;
77524;SDS011;66638;50.050;21.124;2023-03-20T06:14:20;22.80;;;13.20;;
77524;SDS011;66638;50.050;21.124;2023-03-20T06:17:12;23.00;;;12.60;;
77524;SDS011;66638;50.050;21.124;2023-03-20T06:19:59;24.80;;;13.20;;
77524;SDS011;66638;50.050;21.124;2023-03-20T06:22:45;25.30;;;14.20;;
77524;SDS011;66638;50.050;21.124;2023-03-20T06:25:34;27.60;;;14.60;;
77524;SDS011;66638;50.050;21.124;2023-03-20T06:28:20;27.50;;;14.90;;
77524;SDS011;66638;50.050;21.124;2023-03-20T06:31:06;23.20;;;14.30;;
77524;SDS011;66638;50.050;21.124;2023-03-20T06:33:54;24.70;;;14.50;;
77524;SDS011;66638;50.050;21.124;2023-03-20T06:36:40;22.10;;;14.30;;
77524;SDS011;66638;50.050;21.124;2023-03-20T06:39:32;26.40;;;15.10;;
77524;SDS011;66638;50.050;21.124;2023-03-20T06:42:18;27.50;;;14.60;;
77524;SDS011;66638;50.050;21.124;2023-03-20T06:45:05;28.40;;;15.50;;
77524;SDS011;66638;50.050;21.124;2023-03-20T06:48:09;29.30;;;14.90;;
77524;SDS011;66638;50.050;21.124;2023-03-20T06:50:55;25.10;;;14.70;;
77524;SDS011;66638;50.050;21.124;2023-03-20T06:53:45;23.40;;;14.70;;
77524;SDS011;66638;50.050;21.124;2023-03-20T06:59:23;24.00;;;15.00;;
77524;SDS011;66638;50.050;21.124;2023-03-20T07:02:13;22.00;;;13.80;;
77524;SDS011;66638;50.050;21.124;2023-03-20T07:05:01;40.40;;;26.90;;
77524;SDS011;66638;50.050;21.124;2023-03-20T07:07:49;14.60;;;9.70;;
77524;SDS011;66638;50.050;21.124;2023-03-20T07:10:34;14.20;;;8.80;;
77524;SDS011;66638;50.050;21.124;2023-03-20T07:13:21;15.90;;;9.90;;
77524;SDS011;66638;50.050;21.124;2023-03-20T07:16:08;16.30;;;11.40;;
77524;SDS011;66638;50.050;21.124;2023-03-20T07:18:56;18.00;;;12.50;;
77524;SDS011;66638;50.050;21.124;2023-03-20T07:21:43;17.50;;;11.10;;
77524;SDS011;66638;50.050;21.124;2023-03-20T07:24:30;21.50;;;10.60;;
77524;SDS011;66638;50.050;21.124;2023-03-20T07:27:17;17.20;;;12.00;;
77524;SDS011;66638;50.050;21.124;2023-03-20T07:32:51;14.30;;;11.70;;
77524;SDS011;66638;50.050;21.124;2023-03-20T07:35:37;52.10;;;31.20;;
77524;SDS011;66638;50.050;21.124;2023-03-20T07:38:23;26.90;;;19.60;;
77524;SDS011;66638;50.050;21.124;2023-03-20T07:41:21;12.80;;;9.00;;
77524;SDS011;66638;50.050;21.124;2023-03-20T07:44:16;11.00;;;8.20;;
77524;SDS011;66638;50.050;21.124;2023-03-20T07:47:11;14.20;;;10.80;;
77524;SDS011;66638;50.050;21.124;2023-03-20T07:49:57;11.00;;;9.80;;
77524;SDS011;66638;50.050;21.124;2023-03-20T07:52:49;12.50;;;9.70;;
77524;SDS011;66638;50.050;21.124;2023-03-20T07:55:35;14.10;;;10.40;;
77524;SDS011;66638;50.050;21.124;2023-03-20T07:58:22;13.30;;;10.50;;
77524;SDS011;66638;50.050;21.124;2023-03-20T08:01:08;11.50;;;10.20;;
77524;SDS011;66638;50.050;21.124;2023-03-20T08:03:54;13.80;;;11.20;;
77524;SDS011;66638;50.050;21.124;2023-03-20T08:09:25;15.70;;;10.40;;
77524;SDS011;66638;50.050;21.124;2023-03-20T08:12:12;15.20;;;10.90;;
77524;SDS011;66638;50.050;21.124;2023-03-20T08:14:57;12.80;;;10.20;;
77524;SDS011;66638;50.050;21.124;2023-03-20T08:17:44;15.10;;;10.30;;
77524;SDS011;66638;50.050;21.124;2023-03-20T08:20:30;15.30;;;9.20;;
77524;SDS011;66638;50.050;21.124;2023-03-20T08:23:17;13.50;;;9.20;;
77524;SDS011;66638;50.050;21.124;2023-03-20T08:26:03;10.90;;;8.80;;
77524;SDS011;66638;50.050;21.124;2023-03-20T08:28:50;12.00;;;8.30;;
77524;SDS011;66638;50.050;21.124;2023-03-20T08:31:38;10.20;;;8.20;;
77524;SDS011;66638;50.050;21.124;2023-03-20T08:34:25;10.70;;;8.00;;
77524;SDS011;66638;50.050;21.124;2023-03-20T08:37:11;9.90;;;8.50;;
77524;SDS011;66638;50.050;21.124;2023-03-20T08:39:58;10.70;;;9.00;;
77524;SDS011;66638;50.050;21.124;2023-03-20T08:42:44;12.20;;;9.30;;
77524;SDS011;66638;50.050;21.124;2023-03-20T08:45:30;12.40;;;9.70;;
77524;SDS011;66638;50.050;21.124;2023-03-20T08:48:16;11.30;;;9.00;;
77524;SDS011;66638;50.050;21.124;2023-03-20T08:51:02;11.80;;;9.30;;
77524;SDS011;66638;50.050;21.124;2023-03-20T08:53:49;12.00;;;8.50;;
77524;SDS011;66638;50.050;21.124;2023-03-20T08:56:35;13.00;;;9.90;;
77524;SDS011;66638;50.050;21.124;2023-03-20T08:59:21;11.60;;;9.90;;
77524;SDS011;66638;50.050;21.124;2023-03-20T09:02:08;12.80;;;9.80;;
77524;SDS011;66638;50.050;21.124;2023-03-20T09:04:56;12.70;;;9.00;;
77524;SDS011;66638;50.050;21.124;2023-03-20T09:07:42;11.30;;;8.60;;
77524;SDS011;66638;50.050;21.124;2023-03-20T09:10:28;11.50;;;9.70;;
77524;SDS011;66638;50.050;21.124;2023-03-20T09:13:15;13.10;;;9.50;;
77524;SDS011;66638;50.050;21.124;2023-03-20T09:16:01;11.10;;;9.90;;
77524;SDS011;66638;50.050;21.124;2023-03-20T09:18:48;11.60;;;9.40;;
77524;SDS011;66638;50.050;21.124;2023-03-20T09:21:34;10.50;;;8.80;;
77524;SDS011;66638;50.050;21.124;2023-03-20T09:24:20;11.90;;;9.80;;
77524;SDS011;66638;50.050;21.124;2023-03-20T09:27:06;12.50;;;9.70;;
77524;SDS011;66638;50.050;21.124;2023-03-20T09:29:52;12.60;;;10.10;;
77524;SDS011;66638;50.050;21.124;2023-03-20T09:32:37;15.30;;;10.20;;
77524;SDS011;66638;50.050;21.124;2023-03-20T09:35:23;15.10;;;10.10;;
77524;SDS011;66638;50.050;21.124;2023-03-20T09:38:09;12.70;;;10.80;;
77524;SDS011;66638;50.050;21.124;2023-03-20T09:40:58;14.80;;;11.20;;
77524;SDS011;66638;50.050;21.124;2023-03-20T09:43:52;12.90;;;11.30;;
77524;SDS011;66638;50.050;21.124;2023-03-20T09:53:24;12.40;;;11.00;;
77524;SDS011;66638;50.050;21.124;2023-03-20T09:56:16;18.70;;;12.50;;
77524;SDS011;66638;50.050;21.124;2023-03-20T09:59:05;21.60;;;12.20;;
77524;SDS011;66638;50.050;21.124;2023-03-20T10:01:53;10.80;;;9.70;;
77524;SDS011;66638;50.050;21.124;2023-03-20T10:04:55;33.70;;;12.90;;
77524;SDS011;66638;50.050;21.124;2023-03-20T10:07:41;15.50;;;11.50;;
77524;SDS011;66638;50.050;21.124;2023-03-20T10:10:38;13.80;;;10.60;;
77524;SDS011;66638;50.050;21.124;2023-03-20T10:22:47;16.70;;;12.50;;
77524;SDS011;66638;50.050;21.124;2023-03-20T10:25:39;14.20;;;12.20;;
77524;SDS011;66638;50.050;21.124;2023-03-20T10:28:40;14.30;;;12.70;;
77524;SDS011;66638;50.050;21.124;2023-03-20T10:31:44;14.20;;;11.70;;
77524;SDS011;66638;50.050;21.124;2023-03-20T10:37:47;18.00;;;13.90;;
77524;SDS011;66638;50.050;21.124;2023-03-20T10:40:40;17.20;;;14.00;;
77524;SDS011;66638;50.050;21.124;2023-03-20T10:43:28;16.00;;;14.00;;
77524;SDS011;66638;50.050;21.124;2023-03-20T10:46:21;15.30;;;13.50;;
77524;SDS011;66638;50.050;21.124;2023-03-20T10:49:17;16.20;;;13.50;;
77524;SDS011;66638;50.050;21.124;2023-03-20T10:52:09;14.50;;;13.00;;
77524;SDS011;66638;50.050;21.124;2023-03-20T10:54:59;17.50;;;14.60;;
77524;SDS011;66638;50.050;21.124;2023-03-20T10:57:51;15.30;;;13.70;;
77524;SDS011;66638;50.050;21.124;2023-03-20T11:00:58;15.40;;;13.60;;
77524;SDS011;66638;50.050;21.124;2023-03-20T11:03:44;18.30;;;13.90;;
77524;SDS011;66638;50.050;21.124;2023-03-20T11:06:31;19.60;;;14.90;;
77524;SDS011;66638;50.050;21.124;2023-03-20T11:09:20;25.50;;;16.70;;
77524;SDS011;66638;50.050;21.124;2023-03-20T11:12:18;25.10;;;17.30;;
77524;SDS011;66638;50.050;21.124;2023-03-20T11:15:14;19.30;;;17.30;;
77524;SDS011;66638;50.050;21.124;2023-03-20T11:18:05;19.80;;;17.00;;
77524;SDS011;66638;50.050;21.124;2023-03-20T11:20:53;19.60;;;16.50;;
77524;SDS011;66638;50.050;21.124;2023-03-20T11:23:41;23.30;;;16.80;;
77524;SDS011;66638;50.050;21.124;2023-03-20T11:26:35;18.30;;;15.60;;
77524;SDS011;66638;50.050;21.124;2023-03-20T11:29:28;22.60;;;16.50;;
77524;SDS011;66638;50.050;21.124;2023-03-20T11:32:26;20.20;;;16.90;;
77524;SDS011;66638;50.050;21.124;2023-03-20T11:35:19;22.10;;;18.10;;
77524;SDS011;66638;50.050;21.124;2023-03-20T11:38:15;25.30;;;18.80;;
77524;SDS011;66638;50.050;21.124;2023-03-20T11:41:03;21.80;;;18.10;;
77524;SDS011;66638;50.050;21.124;2023-03-20T11:43:49;20.20;;;17.70;;
77524;SDS011;66638;50.050;21.124;2023-03-20T11:46:35;24.80;;;18.00;;
77524;SDS011;66638;50.050;21.124;2023-03-20T11:49:22;27.60;;;18.70;;
77524;SDS011;66638;50.050;21.124;2023-03-20T11:52:10;25.80;;;17.50;;
77524;SDS011;66638;50.050;21.124;2023-03-20T11:54:59;22.10;;;16.60;;
77524;SDS011;66638;50.050;21.124;2023-03-20T11:57:47;21.10;;;16.00;;
77524;SDS011;66638;50.050;21.124;2023-03-20T12:00:37;21.50;;;16.30;;
77524;SDS011;66638;50.050;21.124;2023-03-20T12:06:59;41.00;;;20.60;;
77524;SDS011;66638;50.050;21.124;2023-03-20T12:09:53;23.80;;;18.80;;
77524;SDS011;66638;50.050;21.124;2023-03-20T12:12:47;23.80;;;18.50;;
77524;SDS011;66638;50.050;21.124;2023-03-20T12:15:37;20.80;;;17.40;;
77524;SDS011;66638;50.050;21.124;2023-03-20T12:21:34;21.90;;;16.90;;
77524;SDS011;66638;50.050;21.124;2023-03-20T12:24:44;22.20;;;17.30;;
77524;SDS011;66638;50.050;21.124;2023-03-20T12:27:39;26.70;;;19.10;;
77524;SDS011;66638;50.050;21.124;2023-03-20T12:34:02;25.30;;;18.50;;
77524;SDS011;66638;50.050;21.124;2023-03-20T12:36:56;25.80;;;18.70;;
77524;SDS011;66638;50.050;21.124;2023-03-20T12:39:52;21.50;;;16.70;;
77524;SDS011;66638;50.050;21.124;2023-03-20T12:45:57;27.70;;;19.70;;
77524;SDS011;66638;50.050;21.124;2023-03-20T12:49:01;22.70;;;15.50;;
77524;SDS011;66638;50.050;21.124;2023-03-20T12:52:30;21.20;;;16.80;;
77524;SDS011;66638;50.050;21.124;2023-03-20T12:55:45;21.70;;;17.00;;
77524;SDS011;66638;50.050;21.124;2023-03-20T12:58:46;20.60;;;16.50;;
77524;SDS011;66638;50.050;21.124;2023-03-20T13:01:49;22.60;;;18.10;;
77524;SDS011;66638;50.050;21.124;2023-03-20T13:18:06;23.60;;;17.80;;
77524;SDS011;66638;50.050;21.124;2023-03-20T13:21:12;24.10;;;17.60;;
77524;SDS011;66638;50.050;21.124;2023-03-20T13:30:42;23.70;;;16.70;;
77524;SDS011;66638;50.050;21.124;2023-03-20T13:37:12;18.10;;;14.50;;
77524;SDS011;66638;50.050;21.124;2023-03-20T13:43:22;18.10;;;12.40;;
77524;SDS011;66638;50.050;21.124;2023-03-20T13:46:13;20.20;;;12.90;;
77524;SDS011;66638;50.050;21.124;2023-03-20T13:49:10;18.20;;;12.90;;
77524;SDS011;66638;50.050;21.124;2023-03-20T13:58:22;20.20;;;14.90;;
77524;SDS011;66638;50.050;21.124;2023-03-20T14:04:15;21.20;;;14.60;;
77524;SDS011;66638;50.050;21.124;2023-03-20T14:07:24;21.20;;;13.50;;
77524;SDS011;66638;50.050;21.124;2023-03-20T14:13:20;22.10;;;14.70;;
77524;SDS011;66638;50.050;21.124;2023-03-20T14:16:07;20.20;;;13.80;;
77524;SDS011;66638;50.050;21.124;2023-03-20T14:19:04;21.60;;;15.20;;
77524;SDS011;66638;50.050;21.124;2023-03-20T14:21:53;22.30;;;14.80;;
77524;SDS011;66638;50.050;21.124;2023-03-20T14:24:40;21.20;;;14.60;;
77524;SDS011;66638;50.050;21.124;2023-03-20T14:27:51;19.60;;;13.90;;
77524;SDS011;66638;50.050;21.124;2023-03-20T14:30:47;24.70;;;14.60;;
77524;SDS011;66638;50.050;21.124;2023-03-20T14:33:40;21.60;;;14.90;;
77524;SDS011;66638;50.050;21.124;2023-03-20T14:36:29;23.00;;;15.00;;
77524;SDS011;66638;50.050;21.124;2023-03-20T14:39:44;21.40;;;13.80;;
77524;SDS011;66638;50.050;21.124;2023-03-20T14:45:42;23.50;;;14.60;;
77524;SDS011;66638;50.050;21.124;2023-03-20T14:48:30;26.20;;;14.70;;
77524;SDS011;66638;50.050;21.124;2023-03-20T14:51:25;25.40;;;15.30;;
77524;SDS011;66638;50.050;21.124;2023-03-20T14:54:25;22.60;;;15.10;;
77524;SDS011;66638;50.050;21.124;2023-03-20T14:57:17;22.90;;;15.20;;
77524;SDS011;66638;50.050;21.124;2023-03-20T15:00:05;21.70;;;14.50;;
77524;SDS011;66638;50.050;21.124;2023-03-20T15:03:09;23.40;;;13.60;;
77524;SDS011;66638;50.050;21.124;2023-03-20T15:05:58;21.00;;;13.40;;
77524;SDS011;66638;50.050;21.124;2023-03-20T15:08:46;23.70;;;14.00;;
77524;SDS011;66638;50.050;21.124;2023-03-20T15:11:35;23.00;;;15.10;;
77524;SDS011;66638;50.050;21.124;2023-03-20T15:14:24;24.90;;;16.00;;
77524;SDS011;66638;50.050;21.124;2023-03-20T15:17:15;22.20;;;15.90;;
77524;SDS011;66638;50.050;21.124;2023-03-20T15:23:09;24.20;;;16.30;;
77524;SDS011;66638;50.050;21.124;2023-03-20T15:25:55;26.10;;;15.40;;
77524;SDS011;66638;50.050;21.124;2023-03-20T15:28:45;26.40;;;16.10;;
77524;SDS011;66638;50.050;21.124;2023-03-20T15:31:32;22.60;;;16.60;;
77524;SDS011;66638;50.050;21.124;2023-03-20T15:34:21;28.50;;;17.70;;
77524;SDS011;66638;50.050;21.124;2023-03-20T15:37:13;29.10;;;17.60;;
77524;SDS011;66638;50.050;21.124;2023-03-20T15:40:01;30.10;;;18.80;;
77524;SDS011;66638;50.050;21.124;2023-03-20T15:42:57;28.80;;;18.20;;
77524;SDS011;66638;50.050;21.124;2023-03-20T15:45:44;30.70;;;18.30;;
77524;SDS011;66638;50.050;21.124;2023-03-20T15:48:30;29.60;;;19.20;;
77524;SDS011;66638;50.050;21.124;2023-03-20T15:51:16;31.90;;;18.40;;
77524;SDS011;66638;50.050;21.124;2023-03-20T15:54:03;29.60;;;18.40;;
77524;SDS011;66638;50.050;21.124;2023-03-20T15:56:53;30.10;;;18.50;;
77524;SDS011;66638;50.050;21.124;2023-03-20T15:59:40;30.40;;;18.50;;
77524;SDS011;66638;50.050;21.124;2023-03-20T16:02:27;31.60;;;19.60;;
77524;SDS011;66638;50.050;21.124;2023-03-20T16:05:14;29.60;;;19.30;;
77524;SDS011;66638;50.050;21.124;2023-03-20T16:11:12;36.20;;;19.70;;
77524;SDS011;66638;50.050;21.124;2023-03-20T16:14:00;37.20;;;20.90;;
77524;SDS011;66638;50.050;21.124;2023-03-20T16:16:47;36.00;;;22.30;;
77524;SDS011;66638;50.050;21.124;2023-03-20T16:19:34;39.90;;;23.30;;
77524;SDS011;66638;50.050;21.124;2023-03-20T16:22:31;32.40;;;20.80;;
77524;SDS011;66638;50.050;21.124;2023-03-20T16:25:18;32.50;;;19.90;;
77524;SDS011;66638;50.050;21.124;2023-03-20T16:28:04;32.80;;;19.10;;
77524;SDS011;66638;50.050;21.124;2023-03-20T16:30:54;33.20;;;20.20;;
77524;SDS011;66638;50.050;21.124;2023-03-20T16:33:57;37.30;;;20.20;;
77524;SDS011;66638;50.050;21.124;2023-03-20T16:36:48;36.90;;;21.00;;
77524;SDS011;66638;50.050;21.124;2023-03-20T16:39:36;39.10;;;22.10;;
77524;SDS011;66638;50.050;21.124;2023-03-20T16:42:23;37.10;;;21.00;;
77524;SDS011;66638;50.050;21.124;2023-03-20T16:48:27;41.40;;;26.80;;
77524;SDS011;66638;50.050;21.124;2023-03-20T16:51:22;43.50;;;25.40;;
77524;SDS011;66638;50.050;21.124;2023-03-20T16:54:17;47.30;;;24.90;;
77524;SDS011;66638;50.050;21.124;2023-03-20T16:57:14;82.60;;;70.90;;
77524;SDS011;66638;50.050;21.124;2023-03-20T17:00:06;47.70;;;30.50;;
77524;SDS011;66638;50.050;21.124;2023-03-20T17:03:17;36.30;;;22.00;;
77524;SDS011;66638;50.050;21.124;2023-03-20T17:06:06;50.30;;;25.50;;
77524;SDS011;66638;50.050;21.124;2023-03-20T17:08:59;92.50;;;63.30;;
77524;SDS011;66638;50.050;21.124;2023-03-20T17:11:49;38.80;;;24.10;;
77524;SDS011;66638;50.050;21.124;2023-03-20T17:14:40;31.90;;;18.30;;
77524;SDS011;66638;50.050;21.124;2023-03-20T17:17:26;27.40;;;18.30;;
77524;SDS011;66638;50.050;21.124;2023-03-20T17:20:20;29.10;;;18.10;;
77524;SDS011;66638;50.050;21.124;2023-03-20T17:23:15;42.00;;;26.10;;
77524;SDS011;66638;50.050;21.124;2023-03-20T17:26:07;31.70;;;20.50;;
77524;SDS011;66638;50.050;21.124;2023-03-20T17:28:56;41.60;;;28.30;;
77524;SDS011;66638;50.050;21.124;2023-03-20T17:31:42;41.30;;;29.40;;
77524;SDS011;66638;50.050;21.124;2023-03-20T17:34:28;33.30;;;21.50;;
77524;SDS011;66638;50.050;21.124;2023-03-20T17:37:16;42.90;;;28.80;;
77524;SDS011;66638;50.050;21.124;2023-03-20T17:40:10;71.60;;;45.50;;
77524;SDS011;66638;50.050;21.124;2023-03-20T17:43:04;50.70;;;34.80;;
77524;SDS011;66638;50.050;21.124;2023-03-20T17:45:53;32.90;;;22.80;;
77524;SDS011;66638;50.050;21.124;2023-03-20T17:48:39;35.70;;;20.30;;
77524;SDS011;66638;50.050;21.124;2023-03-20T17:51:24;31.50;;;20.10;;
77524;SDS011;66638;50.050;21.124;2023-03-20T17:54:10;26.50;;;18.70;;
77524;SDS011;66638;50.050;21.124;2023-03-20T17:56:57;29.70;;;19.70;;
77524;SDS011;66638;50.050;21.124;2023-03-20T17:59:42;31.30;;;19.00;;
77524;SDS011;66638;50.050;21.124;2023-03-20T18:02:28;32.20;;;20.50;;
77524;SDS011;66638;50.050;21.124;2023-03-20T18:05:15;31.20;;;18.90;;
77524;SDS011;66638;50.050;21.124;2023-03-20T18:08:01;34.40;;;20.40;;
77524;SDS011;66638;50.050;21.124;2023-03-20T18:10:47;32.70;;;19.10;;
77524;SDS011;66638;50.050;21.124;2023-03-20T18:16:21;32.20;;;19.00;;
77524;SDS011;66638;50.050;21.124;2023-03-20T18:19:12;28.40;;;18.40;;